Time,TemperatureF,DewpointF,PressureIn,WindDirection,WindDirectionDegrees,WindSpeedMPH,WindSpeedGustMPH,Humidity,HourlyPrecipIn,Conditions,Clouds,dailyrainin,SolarRadiationWatts/m^2,SoftwareType,DateUTC
2013-02-08 00:00:00,68.6,64.6,29.92,SSE,160,2.0,4.0,87,0.00,,SKC,0.00,74.00,VWS V14.01,2013-02-08 05:00:00,
2013-02-08 00:01:00,68.6,64.6,29.92,SSE,148,6.0,7.0,87,0.00,,SKC,0.00,74.00,VWS V14.01,2013-02-08 05:01:00,
2013-02-08 00:06:00,68.6,64.6,29.92,South,182,3.0,10.0,87,0.00,,SKC,0.00,74.00,VWS V14.01,2013-02-08 05:06:00,
2013-02-08 00:11:00,68.8,64.8,29.92,SSE,158,0.0,7.0,87,0.00,,SKC,0.00,74.00,VWS V14.01,2013-02-08 05:11:00,
2013-02-08 00:16:00,68.8,64.8,29.92,SSW,199,0.0,6.0,87,0.00,,SKC,0.00,74.00,VWS V14.01,2013-02-08 05:16:00,
2013-02-08 00:21:00,68.8,64.8,29.92,SSW,199,1.0,3.0,87,0.00,,SKC,0.00,74.00,VWS V14.01,2013-02-08 05:21:00,
2013-02-08 00:26:00,68.8,64.8,29.92,SSW,199,0.0,1.0,87,0.00,,SKC,0.00,74.00,VWS V14.01,2013-02-08 05:26:00,
2013-02-08 00:31:00,68.6,64.6,29.92,SSW,198,1.0,3.0,87,0.00,,SKC,0.00,74.00,VWS V14.01,2013-02-08 05:31:00,
2013-02-08 00:36:00,68.6,64.6,29.91,SE,138,2.0,4.0,87,0.00,,SKC,0.00,74.00,VWS V14.01,2013-02-08 05:36:00,
2013-02-08 00:41:00,68.5,64.5,29.90,SE,132,5.0,8.0,87,0.00,,SKC,0.00,74.00,VWS V14.01,2013-02-08 05:41:00,
2013-02-08 00:46:00,68.5,64.5,29.89,SE,142,4.0,9.0,87,0.00,,SKC,0.00,74.00,VWS V14.01,2013-02-08 05:46:00,
2013-02-08 00:51:00,68.5,64.5,29.89,South,179,3.0,6.0,87,0.00,,SKC,0.00,74.00,VWS V14.01,2013-02-08 05:51:00,
2013-02-08 00:56:00,68.5,64.5,29.90,South,174,2.0,6.0,87,0.00,,SKC,0.00,74.00,VWS V14.01,2013-02-08 05:56:00,
2013-02-08 01:01:00,68.5,64.5,29.91,SSW,207,1.0,5.0,87,0.00,,SKC,0.00,74.00,VWS V14.01,2013-02-08 06:01:00,
2013-02-08 01:06:00,68.4,64.7,29.92,SSW,203,3.0,5.0,88,0.00,,SKC,0.00,74.00,VWS V14.01,2013-02-08 06:06:00,
2013-02-08 01:11:00,68.4,64.7,29.92,SSW,202,2.0,3.0,88,0.00,,SKC,0.00,74.00,VWS V14.01,2013-02-08 06:11:00,
2013-02-08 01:16:00,68.5,64.8,29.92,SSW,198,0.0,6.0,88,0.00,,SKC,0.00,74.00,VWS V14.01,2013-02-08 06:16:00,
2013-02-08 01:21:00,68.6,64.9,29.92,SW,216,2.0,5.0,88,0.00,,SKC,0.00,74.00,VWS V14.01,2013-02-08 06:21:00,
2013-02-08 01:26:00,68.7,65.0,29.92,SSW,197,3.0,4.0,88,0.00,,SKC,0.00,74.00,VWS V14.01,2013-02-08 06:26:00,
2013-02-08 01:31:00,68.9,65.2,29.92,South,184,1.0,4.0,88,0.00,,SKC,0.00,74.00,VWS V14.01,2013-02-08 06:31:00,
2013-02-08 01:36:00,69.0,65.3,29.92,SSW,201,2.0,6.0,88,0.00,,SKC,0.00,74.00,VWS V14.01,2013-02-08 06:36:00,
2013-02-08 01:41:00,69.0,65.3,29.92,South,190,1.0,3.0,88,0.00,,SKC,0.00,74.00,VWS V14.01,2013-02-08 06:41:00,
2013-02-08 01:46:00,69.0,65.3,29.91,South,182,1.0,2.0,88,0.00,,SKC,0.00,74.00,VWS V14.01,2013-02-08 06:46:00,
2013-02-08 01:51:00,68.9,65.2,29.90,SSE,164,2.0,6.0,88,0.00,,SKC,0.00,74.00,VWS V14.01,2013-02-08 06:51:00,
2013-02-08 01:56:00,68.9,65.2,29.89,SSE,151,8.0,8.0,88,0.00,,SKC,0.00,74.00,VWS V14.01,2013-02-08 06:56:00,
2013-02-08 02:01:00,68.8,65.1,29.88,South,180,1.0,11.0,88,0.00,,SKC,0.00,74.00,VWS V14.01,2013-02-08 07:01:00,
2013-02-08 02:06:00,68.8,65.1,29.89,South,173,1.0,4.0,88,0.00,,SKC,0.00,74.00,VWS V14.01,2013-02-08 07:06:00,
2013-02-08 02:11:00,68.9,65.2,29.89,SE,136,5.0,6.0,88,0.00,,SKC,0.00,74.00,VWS V14.01,2013-02-08 07:11:00,
2013-02-08 02:16:00,68.9,65.5,29.89,South,188,0.0,4.0,89,0.00,,SKC,0.00,74.00,VWS V14.01,2013-02-08 07:16:00,
2013-02-08 02:21:00,68.9,65.5,29.90,SSW,202,1.0,2.0,89,0.00,,SKC,0.00,74.00,VWS V14.01,2013-02-08 07:21:00,
2013-02-08 02:26:00,68.9,65.5,29.91,West,277,2.0,4.0,89,0.00,,SKC,0.00,74.00,VWS V14.01,2013-02-08 07:26:00,
2013-02-08 02:31:00,68.9,65.5,29.90,SSW,204,4.0,4.0,89,0.00,,SKC,0.00,74.00,VWS V14.01,2013-02-08 07:31:00,
2013-02-08 02:36:00,68.8,65.1,29.90,SSW,195,3.0,3.0,88,0.00,,SKC,0.00,74.00,VWS V14.01,2013-02-08 07:36:00,
2013-02-08 02:41:00,68.8,65.4,29.90,SSW,195,0.0,2.0,89,0.00,,SKC,0.00,74.00,VWS V14.01,2013-02-08 07:41:00,
2013-02-08 02:46:00,68.8,65.4,29.90,SSW,195,0.0,2.0,89,0.00,,SKC,0.00,74.00,VWS V14.01,2013-02-08 07:46:00,
2013-02-08 02:51:00,68.8,65.4,29.91,SSW,195,1.0,2.0,89,0.00,,SKC,0.00,74.00,VWS V14.01,2013-02-08 07:51:00,
2013-02-08 02:56:00,68.7,65.3,29.90,SSW,195,0.0,1.0,89,0.00,,SKC,0.00,74.00,VWS V14.01,2013-02-08 07:56:00,
2013-02-08 03:01:00,68.6,65.2,29.90,SSW,195,0.0,3.0,89,0.00,,SKC,0.00,74.00,VWS V14.01,2013-02-08 08:01:00,
2013-02-08 03:06:00,68.6,65.2,29.89,SSW,195,2.0,3.0,89,0.00,,SKC,0.00,74.00,VWS V14.01,2013-02-08 08:06:00,
2013-02-08 03:11:00,68.6,65.2,29.89,South,174,1.0,5.0,89,0.00,,SKC,0.00,74.00,VWS V14.01,2013-02-08 08:11:00,
2013-02-08 03:16:00,68.6,65.2,29.89,South,187,2.0,5.0,89,0.00,,SKC,0.00,74.00,VWS V14.01,2013-02-08 08:16:00,
2013-02-08 03:21:00,68.5,65.5,29.90,South,170,0.0,7.0,90,0.00,,SKC,0.00,74.00,VWS V14.01,2013-02-08 08:21:00,
2013-02-08 03:26:00,68.4,65.4,29.89,South,181,2.0,4.0,90,0.00,,SKC,0.00,74.00,VWS V14.01,2013-02-08 08:26:00,
2013-02-08 03:31:00,68.4,65.4,29.89,South,169,4.0,5.0,90,0.00,,SKC,0.00,74.00,VWS V14.01,2013-02-08 08:31:00,
2013-02-08 03:36:00,68.4,65.4,29.90,South,177,0.0,2.0,90,0.00,,SKC,0.00,74.00,VWS V14.01,2013-02-08 08:36:00,
2013-02-08 03:41:00,68.4,65.4,29.90,South,179,0.0,3.0,90,0.00,,SKC,0.00,74.00,VWS V14.01,2013-02-08 08:41:00,
2013-02-08 03:46:00,68.3,65.3,29.91,South,180,0.0,2.0,90,0.00,,SKC,0.00,74.00,VWS V14.01,2013-02-08 08:46:00,
2013-02-08 03:51:00,68.2,65.2,29.91,South,182,0.0,3.0,90,0.00,,SKC,0.00,74.00,VWS V14.01,2013-02-08 08:51:00,
2013-02-08 03:56:00,68.2,65.2,29.91,South,182,0.0,3.0,90,0.00,,SKC,0.00,74.00,VWS V14.01,2013-02-08 08:56:00,
2013-02-08 04:01:00,68.2,65.5,29.90,South,183,2.0,3.0,91,0.00,,SKC,0.00,74.00,VWS V14.01,2013-02-08 09:01:00,
2013-02-08 04:06:00,68.2,65.5,29.90,South,184,1.0,4.0,91,0.00,,SKC,0.00,74.00,VWS V14.01,2013-02-08 09:06:00,
2013-02-08 04:11:00,68.3,65.6,29.90,South,188,1.0,3.0,91,0.00,,SKC,0.00,74.00,VWS V14.01,2013-02-08 09:11:00,
2013-02-08 04:16:00,68.4,65.7,29.89,South,185,0.0,6.0,91,0.00,,SKC,0.00,74.00,VWS V14.01,2013-02-08 09:16:00,
2013-02-08 04:21:00,68.5,65.8,29.90,SSW,202,3.0,5.0,91,0.00,,SKC,0.00,74.00,VWS V14.01,2013-02-08 09:21:00,
2013-02-08 04:26:00,68.5,65.8,29.91,SSW,193,3.0,5.0,91,0.00,,SKC,0.00,74.00,VWS V14.01,2013-02-08 09:26:00,
2013-02-08 04:31:00,68.5,65.8,29.90,SSW,196,4.0,7.0,91,0.00,,SKC,0.00,74.00,VWS V14.01,2013-02-08 09:31:00,
2013-02-08 04:36:00,68.6,65.9,29.90,SSW,196,3.0,5.0,91,0.00,,SKC,0.00,74.00,VWS V14.01,2013-02-08 09:36:00,
2013-02-08 04:41:00,68.6,65.9,29.90,SSW,207,1.0,5.0,91,0.00,,SKC,0.00,74.00,VWS V14.01,2013-02-08 09:41:00,
2013-02-08 04:46:00,68.7,66.0,29.90,South,169,2.0,5.0,91,0.00,,SKC,0.00,74.00,VWS V14.01,2013-02-08 09:46:00,
2013-02-08 04:51:00,68.8,66.1,29.89,South,186,2.0,7.0,91,0.00,,SKC,0.00,74.00,VWS V14.01,2013-02-08 09:51:00,
2013-02-08 04:56:00,68.8,66.1,29.89,SSW,195,3.0,10.0,91,0.00,,SKC,0.00,74.00,VWS V14.01,2013-02-08 09:56:00,
2013-02-08 05:01:00,68.9,66.2,29.89,South,170,4.0,12.0,91,0.00,,SKC,0.00,74.00,VWS V14.01,2013-02-08 10:01:00,
2013-02-08 05:06:00,68.9,66.2,29.89,South,185,2.0,8.0,91,0.00,,SKC,0.00,74.00,VWS V14.01,2013-02-08 10:06:00,
2013-02-08 05:11:00,69.0,66.3,29.89,South,186,5.0,8.0,91,0.00,,SKC,0.00,74.00,VWS V14.01,2013-02-08 10:11:00,
2013-02-08 05:16:00,69.0,66.3,29.90,SSW,193,3.0,7.0,91,0.00,,SKC,0.00,74.00,VWS V14.01,2013-02-08 10:16:00,
2013-02-08 05:21:00,69.0,66.3,29.90,SSW,211,1.0,7.0,91,0.00,,SKC,0.00,74.00,VWS V14.01,2013-02-08 10:21:00,
2013-02-08 05:26:00,69.1,66.4,29.90,SSW,198,0.0,5.0,91,0.00,,SKC,0.00,74.00,VWS V14.01,2013-02-08 10:26:00,
2013-02-08 05:31:00,69.1,66.4,29.90,SSW,211,1.0,7.0,91,0.00,,SKC,0.00,74.00,VWS V14.01,2013-02-08 10:31:00,
2013-02-08 05:36:00,69.2,66.8,29.91,SSW,208,5.0,7.0,92,0.00,,SKC,0.00,74.00,VWS V14.01,2013-02-08 10:36:00,
2013-02-08 05:41:00,69.1,66.4,29.91,WSW,254,3.0,7.0,91,0.00,,SKC,0.00,74.00,VWS V14.01,2013-02-08 10:41:00,
2013-02-08 05:46:00,69.0,66.3,29.92,SSW,209,3.0,5.0,91,0.00,,SKC,0.00,74.00,VWS V14.01,2013-02-08 10:46:00,
2013-02-08 05:51:00,68.9,66.2,29.92,SSW,202,1.0,5.0,91,0.00,,SKC,0.00,74.00,VWS V14.01,2013-02-08 10:51:00,
2013-02-08 05:56:00,68.8,66.4,29.92,SSW,208,0.0,3.0,92,0.00,,SKC,0.00,74.00,VWS V14.01,2013-02-08 10:56:00,
2013-02-08 06:01:00,68.7,66.3,29.92,SSW,205,2.0,5.0,92,0.00,,SKC,0.00,74.00,VWS V14.01,2013-02-08 11:01:00,
2013-02-08 06:06:00,68.6,66.2,29.92,SSW,205,1.0,4.0,92,0.00,,SKC,0.00,74.00,VWS V14.01,2013-02-08 11:06:00,
2013-02-08 06:11:00,68.6,66.2,29.92,SSW,206,2.0,5.0,92,0.00,,SKC,0.00,74.00,VWS V14.01,2013-02-08 11:11:00,
2013-02-08 06:16:00,68.5,66.1,29.92,SSW,209,0.0,6.0,92,0.00,,SKC,0.00,74.00,VWS V14.01,2013-02-08 11:16:00,
2013-02-08 06:21:00,68.3,65.9,29.92,SSW,211,0.0,3.0,92,0.00,,SKC,0.00,74.00,VWS V14.01,2013-02-08 11:21:00,
2013-02-08 06:26:00,68.3,65.9,29.92,SSW,208,4.0,5.0,92,0.00,,SKC,0.00,74.00,VWS V14.01,2013-02-08 11:26:00,
2013-02-08 06:31:00,68.4,66.3,29.92,SSW,201,3.0,5.0,93,0.00,,SKC,0.00,74.00,VWS V14.01,2013-02-08 11:31:00,
2013-02-08 06:36:00,68.4,66.3,29.93,SSW,195,0.0,4.0,93,0.00,,SKC,0.00,74.00,VWS V14.01,2013-02-08 11:36:00,
2013-02-08 06:41:00,68.4,66.3,29.93,SW,218,1.0,6.0,93,0.00,,SKC,0.00,74.00,VWS V14.01,2013-02-08 11:41:00,
2013-02-08 06:46:00,68.4,66.3,29.93,SSW,207,0.0,5.0,93,0.00,,SKC,0.00,74.00,VWS V14.01,2013-02-08 11:46:00,
2013-02-08 06:51:00,68.5,66.4,29.93,South,182,6.0,6.0,93,0.00,,SKC,0.00,74.00,VWS V14.01,2013-02-08 11:51:00,
2013-02-08 06:56:00,68.5,66.4,29.93,South,186,4.0,7.0,93,0.00,,SKC,0.00,76.00,VWS V14.01,2013-02-08 11:56:00,
2013-02-08 07:01:00,68.5,66.4,29.93,SSW,197,2.0,6.0,93,0.00,,SKC,0.00,76.00,VWS V14.01,2013-02-08 12:01:00,
2013-02-08 07:06:00,68.5,66.4,29.93,South,183,2.0,5.0,93,0.00,,SKC,0.00,79.00,VWS V14.01,2013-02-08 12:06:00,
2013-02-08 07:11:00,68.5,66.7,29.94,SSW,211,1.0,7.0,94,0.00,,SKC,0.00,83.00,VWS V14.01,2013-02-08 12:11:00,
2013-02-08 07:16:00,68.5,66.7,29.94,South,169,0.0,5.0,94,0.00,,SKC,0.00,88.00,VWS V14.01,2013-02-08 12:16:00,
2013-02-08 07:21:00,68.5,66.7,29.93,SSW,207,2.0,6.0,94,0.00,,SKC,0.00,95.00,VWS V14.01,2013-02-08 12:21:00,
2013-02-08 07:26:00,68.6,66.8,29.93,SSW,207,0.0,6.0,94,0.00,,SKC,0.00,93.00,VWS V14.01,2013-02-08 12:26:00,
2013-02-08 07:31:00,68.6,66.8,29.94,SSW,207,1.0,6.0,94,0.00,,SKC,0.00,93.00,VWS V14.01,2013-02-08 12:31:00,
2013-02-08 07:36:00,68.7,66.9,29.94,SSW,205,0.0,6.0,94,0.00,,SKC,0.00,109.00,VWS V14.01,2013-02-08 12:36:00,
2013-02-08 07:41:00,68.8,67.0,29.95,SSW,213,10.0,10.0,94,0.00,,SKC,0.00,121.00,VWS V14.01,2013-02-08 12:41:00,
2013-02-08 07:46:00,69.0,67.2,29.96,South,189,0.0,5.0,94,0.00,,SKC,0.00,121.00,VWS V14.01,2013-02-08 12:46:00,
2013-02-08 07:51:00,69.2,67.4,29.95,South,188,3.0,9.0,94,0.00,,SKC,0.00,155.00,VWS V14.01,2013-02-08 12:51:00,
2013-02-08 07:56:00,69.3,67.5,29.96,SW,215,1.0,7.0,94,0.00,,CLR,0.00,156.00,VWS V14.01,2013-02-08 12:56:00,
2013-02-08 08:01:00,69.5,67.7,29.96,SSW,203,5.0,11.0,94,0.00,,CLR,0.00,214.00,VWS V14.01,2013-02-08 13:01:00,
2013-02-08 08:06:00,69.7,67.9,29.96,SSW,194,5.0,9.0,94,0.00,,CLR,0.00,227.00,VWS V14.01,2013-02-08 13:06:00,
2013-02-08 08:11:00,69.9,68.1,29.96,SSW,193,2.0,7.0,94,0.00,,CLR,0.00,246.00,VWS V14.01,2013-02-08 13:11:00,
2013-02-08 08:16:00,69.9,68.1,29.96,WSW,243,2.0,12.0,94,0.00,,CLR,0.00,258.00,VWS V14.01,2013-02-08 13:16:00,
2013-02-08 08:21:00,70.1,68.3,29.96,SW,223,3.0,10.0,94,0.00,,CLR,0.00,297.00,VWS V14.01,2013-02-08 13:21:00,
2013-02-08 08:26:00,70.4,68.3,29.95,SSW,198,2.0,10.0,93,0.00,,CLR,0.00,272.00,VWS V14.01,2013-02-08 13:26:00,
2013-02-08 08:31:00,70.6,68.5,29.96,SW,217,2.0,10.0,93,0.00,,CLR,0.00,311.00,VWS V14.01,2013-02-08 13:31:00,
2013-02-08 08:36:00,70.9,68.8,29.96,SW,215,6.0,13.0,93,0.00,,CLR,0.00,334.00,VWS V14.01,2013-02-08 13:36:00,
2013-02-08 08:41:00,71.4,69.0,29.96,SSW,207,1.0,7.0,92,0.00,,CLR,0.00,352.00,VWS V14.01,2013-02-08 13:41:00,
2013-02-08 08:46:00,71.6,68.8,29.97,SW,217,1.0,12.0,91,0.00,,CLR,0.00,373.00,VWS V14.01,2013-02-08 13:46:00,
2013-02-08 08:51:00,71.7,68.9,29.97,SSW,202,7.0,7.0,91,0.00,,CLR,0.00,193.00,VWS V14.01,2013-02-08 13:51:00,
2013-02-08 08:56:00,71.9,68.8,29.97,South,186,5.0,11.0,90,0.00,,CLR,0.00,399.00,VWS V14.01,2013-02-08 13:56:00,
2013-02-08 09:01:00,72.1,69.0,29.97,WSW,237,6.0,10.0,90,0.00,,CLR,0.00,420.00,VWS V14.01,2013-02-08 14:01:00,
2013-02-08 09:06:00,72.0,68.9,29.98,SW,223,7.0,7.0,90,0.00,,CLR,0.00,257.00,VWS V14.01,2013-02-08 14:06:00,
2013-02-08 09:11:00,72.0,68.9,29.98,SSW,210,2.0,8.0,90,0.00,,CLR,0.00,311.00,VWS V14.01,2013-02-08 14:11:00,
2013-02-08 09:16:00,72.0,68.6,29.98,WSW,243,3.0,13.0,89,0.00,,CLR,0.00,197.00,VWS V14.01,2013-02-08 14:16:00,
2013-02-08 09:21:00,71.9,68.8,29.98,SW,214,3.0,9.0,90,0.00,,CLR,0.00,492.00,VWS V14.01,2013-02-08 14:21:00,
2013-02-08 09:26:00,72.6,69.2,29.99,SW,227,4.0,9.0,89,0.00,,CLR,0.00,424.00,VWS V14.01,2013-02-08 14:26:00,
2013-02-08 09:31:00,73.2,69.4,29.99,SW,221,8.0,11.0,88,0.00,,CLR,0.00,548.00,VWS V14.01,2013-02-08 14:31:00,
2013-02-08 09:36:00,73.5,69.4,29.99,WSW,239,2.0,9.0,87,0.00,,CLR,0.00,399.00,VWS V14.01,2013-02-08 14:36:00,
2013-02-08 09:41:00,73.9,69.4,29.99,SSW,205,7.0,13.0,86,0.00,,CLR,0.00,348.00,VWS V14.01,2013-02-08 14:41:00,
2013-02-08 09:46:00,74.2,69.4,29.99,SW,234,5.0,15.0,85,0.00,,CLR,0.00,258.00,VWS V14.01,2013-02-08 14:46:00,
2013-02-08 09:51:00,74.8,70.0,29.99,SSW,205,4.0,12.0,85,0.00,,CLR,0.00,645.00,VWS V14.01,2013-02-08 14:51:00,
2013-02-08 09:56:00,75.6,70.1,29.99,SW,232,12.0,12.0,83,0.00,,CLR,0.00,385.00,VWS V14.01,2013-02-08 14:56:00,
2013-02-08 10:01:00,75.6,70.1,29.99,West,261,2.0,11.0,83,0.00,,CLR,0.00,348.00,VWS V14.01,2013-02-08 15:01:00,
2013-02-08 10:06:00,76.0,70.1,29.99,WSW,240,1.0,9.0,82,0.00,,CLR,0.00,315.00,VWS V14.01,2013-02-08 15:06:00,
2013-02-08 10:11:00,75.8,69.6,30.00,SSW,205,10.0,13.0,81,0.00,,CLR,0.00,367.00,VWS V14.01,2013-02-08 15:11:00,
2013-02-08 10:16:00,75.6,69.7,30.00,WSW,240,10.0,12.0,82,0.00,,CLR,0.00,239.00,VWS V14.01,2013-02-08 15:16:00,
2013-02-08 10:21:00,75.4,69.9,30.00,SSW,202,4.0,11.0,83,0.00,,CLR,0.00,311.00,VWS V14.01,2013-02-08 15:21:00,
2013-02-08 10:26:00,75.6,70.1,30.00,SSW,192,0.0,10.0,83,0.00,,CLR,0.00,269.00,VWS V14.01,2013-02-08 15:26:00,
2013-02-08 10:31:00,75.5,70.0,29.99,SW,215,3.0,7.0,83,0.00,,CLR,0.00,232.00,VWS V14.01,2013-02-08 15:31:00,
2013-02-08 10:36:00,75.5,70.0,29.99,SW,233,5.0,7.0,83,0.00,,CLR,0.00,193.00,VWS V14.01,2013-02-08 15:36:00,
2013-02-08 10:41:00,75.5,70.0,30.00,WSW,252,6.0,6.0,83,0.00,,CLR,0.00,281.00,VWS V14.01,2013-02-08 15:41:00,
2013-02-08 10:46:00,75.6,70.1,29.99,West,261,3.0,10.0,83,0.00,,CLR,0.00,334.00,VWS V14.01,2013-02-08 15:46:00,
2013-02-08 10:51:00,75.7,69.8,29.99,SW,235,5.0,12.0,82,0.00,,CLR,0.00,339.00,VWS V14.01,2013-02-08 15:51:00,
2013-02-08 10:56:00,76.0,69.8,29.99,SW,221,7.0,12.0,81,0.00,,CLR,0.00,411.00,VWS V14.01,2013-02-08 15:56:00,
2013-02-08 11:01:00,76.3,70.1,29.99,SW,215,5.0,12.0,81,0.00,,CLR,0.00,294.00,VWS V14.01,2013-02-08 16:01:00,
2013-02-08 11:06:00,76.1,69.8,29.99,SW,228,5.0,16.0,81,0.00,,CLR,0.00,285.00,VWS V14.01,2013-02-08 16:06:00,
2013-02-08 11:11:00,76.0,69.8,29.99,WNW,290,4.0,10.0,81,0.00,,CLR,0.00,332.00,VWS V14.01,2013-02-08 16:11:00,
2013-02-08 11:16:00,75.7,69.5,29.99,WNW,289,11.0,13.0,81,0.00,,CLR,0.00,269.00,VWS V14.01,2013-02-08 16:16:00,
2013-02-08 11:21:00,75.7,69.8,29.99,West,269,5.0,9.0,82,0.00,,BKN019,0.00,272.00,VWS V14.01,2013-02-08 16:21:00,
2013-02-08 11:26:00,75.3,69.8,29.99,WNW,293,4.0,11.0,83,0.00,,BKN019,0.00,385.00,VWS V14.01,2013-02-08 16:26:00,
2013-02-08 11:31:00,75.4,69.9,29.99,West,271,5.0,9.0,83,0.00,,BKN019,0.00,415.00,VWS V14.01,2013-02-08 16:31:00,
2013-02-08 11:35:00,75.6,70.1,29.98,WNW,301,5.0,11.0,83,0.00,,BKN019,0.00,246.00,VWS V14.01,2013-02-08 16:35:00,
2013-02-08 11:41:00,75.5,69.6,29.99,WNW,284,7.0,12.0,82,0.00,,BKN019,0.00,570.00,VWS V14.01,2013-02-08 16:41:00,
2013-02-08 11:46:00,75.8,69.9,29.99,WNW,288,7.0,12.0,82,0.00,,BKN019,0.00,348.00,VWS V14.01,2013-02-08 16:46:00,
2013-02-08 11:50:00,76.0,69.8,29.99,SW,220,6.0,8.0,81,0.00,,BKN019,0.00,329.00,VWS V14.01,2013-02-08 16:50:00,
2013-02-08 11:55:00,76.6,70.0,29.99,SW,227,5.0,10.0,80,0.00,,BKN019,0.00,367.00,VWS V14.01,2013-02-08 16:55:00,
2013-02-08 12:00:00,76.5,69.1,29.99,West,261,11.0,11.0,78,0.00,,BKN019,0.00,380.00,VWS V14.01,2013-02-08 17:00:00,
2013-02-08 12:05:00,76.9,69.5,29.98,South,172,3.0,13.0,78,0.00,,BKN019,0.00,348.00,VWS V14.01,2013-02-08 17:05:00,
2013-02-08 12:10:00,76.9,69.2,29.98,West,263,3.0,12.0,77,0.00,,BKN019,0.00,341.00,VWS V14.01,2013-02-08 17:10:00,
2013-02-08 12:16:00,76.8,69.4,29.98,NW,319,7.0,9.0,78,0.00,,BKN019,0.00,441.00,VWS V14.01,2013-02-08 17:16:00,
2013-02-08 12:21:00,77.5,69.7,29.98,WNW,288,6.0,10.0,77,0.00,,BKN019,0.00,336.00,VWS V14.01,2013-02-08 17:21:00,
2013-02-08 12:26:00,77.4,69.2,29.98,WNW,300,4.0,13.0,76,0.00,,BKN019,0.00,353.00,VWS V14.01,2013-02-08 17:26:00,
2013-02-08 12:31:00,77.1,69.3,29.98,NW,304,12.0,12.0,77,0.00,,BKN019,0.00,225.00,VWS V14.01,2013-02-08 17:31:00,
2013-02-08 12:36:00,76.2,69.2,29.98,WNW,303,10.0,12.0,79,0.00,,BKN021,0.00,318.00,VWS V14.01,2013-02-08 17:36:00,
2013-02-08 12:41:00,75.7,69.1,29.98,West,279,11.0,12.0,80,0.00,,BKN021,0.00,243.00,VWS V14.01,2013-02-08 17:41:00,
2013-02-08 12:46:00,75.5,68.9,29.98,NW,305,2.0,12.0,80,0.00,,BKN021,0.00,279.00,VWS V14.01,2013-02-08 17:46:00,
2013-02-08 12:51:00,76.1,69.5,29.97,NNW,348,5.0,12.0,80,0.00,,BKN021,0.00,780.00,VWS V14.01,2013-02-08 17:51:00,
2013-02-08 12:56:00,76.9,69.5,29.97,WNW,298,5.0,13.0,78,0.00,,BKN021,0.00,789.00,VWS V14.01,2013-02-08 17:56:00,
2013-02-08 13:01:00,77.5,69.3,29.97,West,268,7.0,10.0,76,0.00,,BKN021,0.00,810.00,VWS V14.01,2013-02-08 18:01:00,
2013-02-08 13:06:00,77.8,68.9,29.96,West,277,14.0,14.0,74,0.00,,BKN021,0.00,780.00,VWS V14.01,2013-02-08 18:06:00,
2013-02-08 13:11:00,77.6,69.1,29.96,WSW,240,2.0,8.0,75,0.00,,BKN021,0.00,780.00,VWS V14.01,2013-02-08 18:11:00,
2013-02-08 13:16:00,77.9,68.9,29.96,WNW,282,6.0,10.0,74,0.00,,BKN021,0.00,770.00,VWS V14.01,2013-02-08 18:16:00,
2013-02-08 13:21:00,78.7,69.7,29.96,West,263,10.0,11.0,74,0.00,,BKN021,0.00,798.00,VWS V14.01,2013-02-08 18:21:00,
2013-02-08 13:26:00,78.7,68.9,29.95,WSW,257,7.0,13.0,72,0.00,,BKN021,0.00,796.00,VWS V14.01,2013-02-08 18:26:00,
2013-02-08 13:31:00,78.6,69.2,29.95,WNW,302,7.0,12.0,73,0.00,,BKN021,0.00,784.00,VWS V14.01,2013-02-08 18:31:00,
2013-02-08 13:36:00,78.6,68.8,29.95,WNW,291,6.0,15.0,72,0.00,,BKN021,0.00,823.00,VWS V14.01,2013-02-08 18:36:00,
2013-02-08 13:41:00,79.3,69.1,29.95,West,267,11.0,12.0,71,0.00,,BKN021,0.00,782.00,VWS V14.01,2013-02-08 18:41:00,
2013-02-08 13:46:00,79.2,69.0,29.95,WNW,299,4.0,12.0,71,0.00,,BKN021,0.00,840.00,VWS V14.01,2013-02-08 18:46:00,
2013-02-08 13:51:00,79.1,68.9,29.94,NW,326,4.0,14.0,71,0.00,,SCT030,0.00,378.00,VWS V14.01,2013-02-08 18:51:00,
2013-02-08 13:56:00,79.6,69.4,29.94,NNW,327,6.0,11.0,71,0.00,,SCT030,0.00,737.00,VWS V14.01,2013-02-08 18:56:00,
2013-02-08 14:01:00,79.1,68.9,29.95,NW,304,8.0,11.0,71,0.00,,SCT030,0.00,740.00,VWS V14.01,2013-02-08 19:01:00,
2013-02-08 14:06:00,78.8,69.0,29.94,WNW,288,10.0,10.0,72,0.00,,SCT030,0.00,714.00,VWS V14.01,2013-02-08 19:06:00,
2013-02-08 14:11:00,79.2,69.4,29.94,West,261,4.0,7.0,72,0.00,,SCT030,0.00,737.00,VWS V14.01,2013-02-08 19:11:00,
2013-02-08 14:16:00,79.3,69.5,29.94,NW,315,4.0,10.0,72,0.00,,SCT030,0.00,786.00,VWS V14.01,2013-02-08 19:16:00,
2013-02-08 14:21:00,79.1,69.3,29.94,North,355,3.0,10.0,72,0.00,,SCT030,0.00,807.00,VWS V14.01,2013-02-08 19:21:00,
2013-02-08 14:26:00,78.5,69.1,29.94,NW,321,4.0,5.0,73,0.00,,SCT030,0.00,399.00,VWS V14.01,2013-02-08 19:26:00,
2013-02-08 14:31:00,78.9,69.1,29.94,NNW,331,3.0,6.0,72,0.00,,SCT030,0.00,497.00,VWS V14.01,2013-02-08 19:31:00,
2013-02-08 14:36:00,79.7,69.5,29.93,WSW,242,4.0,7.0,71,0.00,,SCT030,0.00,657.00,VWS V14.01,2013-02-08 19:36:00,
2013-02-08 14:41:00,80.4,68.9,29.93,WNW,292,5.0,8.0,68,0.00,,SCT030,0.00,628.00,VWS V14.01,2013-02-08 19:41:00,
2013-02-08 14:46:00,80.0,68.5,29.93,WNW,286,4.0,11.0,68,0.00,,SCT030,0.00,619.00,VWS V14.01,2013-02-08 19:46:00,
2013-02-08 14:51:00,80.0,68.9,29.93,West,277,12.0,12.0,69,0.00,,SCT030,0.00,601.00,VWS V14.01,2013-02-08 19:51:00,
2013-02-08 14:56:00,80.3,68.8,29.93,WSW,251,7.0,7.0,68,0.00,,SCT030,0.00,599.00,VWS V14.01,2013-02-08 19:56:00,
2013-02-08 15:01:00,80.5,69.0,29.92,NW,308,3.0,6.0,68,0.00,,FEW030,0.00,578.00,VWS V14.01,2013-02-08 20:01:00,
2013-02-08 15:06:00,80.9,68.5,29.92,West,273,5.0,12.0,66,0.00,,FEW030,0.00,573.00,VWS V14.01,2013-02-08 20:06:00,
2013-02-08 15:11:00,81.5,69.1,29.92,WSW,257,9.0,11.0,66,0.00,,FEW030,0.00,615.00,VWS V14.01,2013-02-08 20:11:00,
2013-02-08 15:16:00,80.8,68.4,29.92,NW,317,0.0,6.0,66,0.00,,FEW030,0.00,230.00,VWS V14.01,2013-02-08 20:16:00,
2013-02-08 15:21:00,81.0,69.4,29.92,West,277,1.0,7.0,68,0.00,,FEW030,0.00,582.00,VWS V14.01,2013-02-08 20:21:00,
2013-02-08 15:26:00,80.7,68.7,29.91,WNW,296,2.0,6.0,67,0.00,,FEW030,0.00,536.00,VWS V14.01,2013-02-08 20:26:00,
2013-02-08 15:31:00,80.6,68.6,29.91,West,276,7.0,10.0,67,0.00,,FEW030,0.00,220.00,VWS V14.01,2013-02-08 20:31:00,
2013-02-08 15:36:00,80.5,69.0,29.91,NNW,342,5.0,7.0,68,0.00,,FEW030,0.00,508.00,VWS V14.01,2013-02-08 20:36:00,
2013-02-08 15:41:00,80.2,68.7,29.91,NNE,13,6.0,10.0,68,0.00,,FEW030,0.00,517.00,VWS V14.01,2013-02-08 20:41:00,
2013-02-08 15:46:00,80.1,68.6,29.91,North,5,4.0,9.0,68,0.00,,FEW030,0.00,499.00,VWS V14.01,2013-02-08 20:46:00,
2013-02-08 15:51:00,80.1,68.6,29.91,NNW,348,4.0,9.0,68,0.00,,FEW030,0.00,461.00,VWS V14.01,2013-02-08 20:51:00,
2013-02-08 15:56:00,80.2,68.7,29.91,NW,317,6.0,11.0,68,0.00,,FEW030,0.00,443.00,VWS V14.01,2013-02-08 20:56:00,
2013-02-08 16:01:00,80.0,68.5,29.91,North,360,3.0,7.0,68,0.00,,FEW030,0.00,441.00,VWS V14.01,2013-02-08 21:01:00,
2013-02-08 16:06:00,80.3,68.8,29.91,WNW,298,6.0,7.0,68,0.00,,FEW030,0.00,457.00,VWS V14.01,2013-02-08 21:06:00,
2013-02-08 16:11:00,80.5,68.5,29.91,WNW,282,6.0,6.0,67,0.00,,FEW030,0.00,355.00,VWS V14.01,2013-02-08 21:11:00,
2013-02-08 16:16:00,80.3,68.3,29.92,NNW,340,4.0,4.0,67,0.00,,FEW030,0.00,181.00,VWS V14.01,2013-02-08 21:16:00,
2013-02-08 16:21:00,80.1,68.2,29.92,NW,313,4.0,6.0,67,0.00,,FEW030,0.00,288.00,VWS V14.01,2013-02-08 21:21:00,
2013-02-08 16:26:00,80.0,68.5,29.92,NNW,327,3.0,6.0,68,0.00,,FEW030,0.00,318.00,VWS V14.01,2013-02-08 21:26:00,
2013-02-08 16:31:00,80.1,69.0,29.92,NNW,347,4.0,5.0,69,0.00,,FEW030,0.00,169.00,VWS V14.01,2013-02-08 21:31:00,
2013-02-08 16:36:00,80.0,68.5,29.92,NNW,331,2.0,7.0,68,0.00,,FEW030,0.00,325.00,VWS V14.01,2013-02-08 21:36:00,
2013-02-08 16:41:00,80.0,68.5,29.92,North,360,3.0,6.0,68,0.00,,FEW030,0.00,162.00,VWS V14.01,2013-02-08 21:41:00,
2013-02-08 16:46:00,79.8,68.3,29.92,NNW,329,5.0,5.0,68,0.00,,FEW030,0.00,325.00,VWS V14.01,2013-02-08 21:46:00,
2013-02-08 16:51:00,80.0,68.1,29.92,North,5,2.0,5.0,67,0.00,,FEW030,0.00,190.00,VWS V14.01,2013-02-08 21:51:00,
2013-02-08 16:56:00,79.7,68.2,29.92,NNE,14,3.0,6.0,68,0.00,,FEW035,0.00,171.00,VWS V14.01,2013-02-08 21:56:00,
2013-02-08 17:01:00,79.5,68.0,29.92,NNE,15,0.0,4.0,68,0.00,,FEW035,0.00,165.00,VWS V14.01,2013-02-08 22:01:00,
2013-02-08 17:06:00,79.4,67.9,29.92,NNE,15,1.0,2.0,68,0.00,,FEW035,0.00,135.00,VWS V14.01,2013-02-08 22:06:00,
2013-02-08 17:11:00,79.4,68.3,29.92,NNE,15,0.0,2.0,69,0.00,,FEW035,0.00,146.00,VWS V14.01,2013-02-08 22:11:00,
2013-02-08 17:16:00,79.3,68.3,29.92,NNE,15,0.0,1.0,69,0.00,,FEW035,0.00,162.00,VWS V14.01,2013-02-08 22:16:00,
2013-02-08 17:21:00,79.1,68.1,29.92,NNE,15,0.0,2.0,69,0.00,,FEW035,0.00,153.00,VWS V14.01,2013-02-08 22:21:00,
2013-02-08 17:26:00,79.1,68.1,29.92,NNE,15,0.0,0.0,69,0.00,,FEW035,0.00,113.00,VWS V14.01,2013-02-08 22:26:00,
2013-02-08 17:31:00,79.2,68.2,29.93,NNE,15,0.0,0.0,69,0.00,,FEW035,0.00,125.00,VWS V14.01,2013-02-08 22:31:00,
2013-02-08 17:36:00,79.4,67.9,29.93,NNE,15,0.0,0.0,68,0.00,,FEW035,0.00,114.00,VWS V14.01,2013-02-08 22:36:00,
2013-02-08 17:41:00,79.2,68.2,29.93,NNE,15,0.0,0.0,69,0.00,,FEW035,0.00,105.00,VWS V14.01,2013-02-08 22:41:00,
2013-02-08 17:46:00,79.1,68.1,29.93,NNE,15,0.0,2.0,69,0.00,,FEW035,0.00,98.00,VWS V14.01,2013-02-08 22:46:00,
2013-02-08 17:51:00,79.0,68.0,29.93,NNE,15,0.0,0.0,69,0.00,,FEW035,0.00,93.00,VWS V14.01,2013-02-08 22:51:00,
2013-02-08 17:56:00,79.0,67.6,29.93,NNE,15,0.0,0.0,68,0.00,,FEW035,0.00,88.00,VWS V14.01,2013-02-08 22:56:00,
2013-02-08 18:01:00,79.0,67.6,29.93,NNE,15,0.0,0.0,68,0.00,,FEW035,0.00,84.00,VWS V14.01,2013-02-08 23:01:00,
2013-02-08 18:06:00,79.0,67.6,29.93,NNE,15,0.0,0.0,68,0.00,,FEW035,0.00,79.00,VWS V14.01,2013-02-08 23:06:00,
2013-02-08 18:11:00,78.8,67.8,29.93,NNE,15,0.0,0.0,69,0.00,,FEW035,0.00,77.00,VWS V14.01,2013-02-08 23:11:00,
2013-02-08 18:16:00,78.5,67.9,29.93,NNE,15,0.0,0.0,70,0.00,,FEW035,0.00,76.00,VWS V14.01,2013-02-08 23:16:00,
2013-02-08 18:21:00,78.4,67.8,29.94,NNE,15,0.0,0.0,70,0.00,,FEW035,0.00,74.00,VWS V14.01,2013-02-08 23:21:00,
2013-02-08 18:26:00,78.3,67.7,29.94,NNE,15,0.0,0.0,70,0.00,,FEW035,0.00,74.00,VWS V14.01,2013-02-08 23:26:00,
2013-02-08 18:31:00,77.9,67.8,29.94,NNE,15,0.0,0.0,71,0.00,,FEW035,0.00,74.00,VWS V14.01,2013-02-08 23:31:00,
2013-02-08 18:36:00,77.8,67.7,29.94,NNE,15,0.0,0.0,71,0.00,,FEW035,0.00,74.00,VWS V14.01,2013-02-08 23:36:00,
2013-02-08 18:41:00,77.4,67.7,29.94,NNE,15,0.0,0.0,72,0.00,,FEW035,0.00,74.00,VWS V14.01,2013-02-08 23:41:00,
2013-02-08 18:46:00,77.1,67.8,29.94,NNE,15,0.0,0.0,73,0.00,,FEW035,0.00,74.00,VWS V14.01,2013-02-08 23:46:00,
2013-02-08 18:51:00,76.8,67.9,29.94,NNE,15,0.0,0.0,74,0.00,,FEW035,0.00,74.00,VWS V14.01,2013-02-08 23:51:00,
2013-02-08 18:56:00,76.6,67.7,29.94,NNE,15,0.0,0.0,74,0.00,,FEW035,0.00,74.00,VWS V14.01,2013-02-08 23:56:00,
2013-02-08 19:01:00,76.4,67.9,29.94,NNE,15,0.0,0.0,75,0.00,,FEW035,0.00,74.00,VWS V14.01,2013-02-09 00:01:00,
2013-02-08 19:06:00,76.1,68.0,29.94,SE,143,1.0,6.0,76,0.00,,FEW035,0.00,74.00,VWS V14.01,2013-02-09 00:06:00,
2013-02-08 19:11:00,76.0,68.7,29.94,SE,143,2.0,4.0,78,0.00,,FEW035,0.00,74.00,VWS V14.01,2013-02-09 00:11:00,
2013-02-08 19:16:00,75.7,68.7,29.94,SE,143,1.0,3.0,79,0.00,,FEW035,0.00,74.00,VWS V14.01,2013-02-09 00:16:00,
2013-02-08 19:21:00,75.5,68.9,29.94,SE,143,0.0,1.0,80,0.00,,FEW035,0.00,74.00,VWS V14.01,2013-02-09 00:21:00,
2013-02-08 19:26:00,75.3,69.1,29.95,SE,143,1.0,2.0,81,0.00,,FEW035,0.00,74.00,VWS V14.01,2013-02-09 00:26:00,
2013-02-08 19:31:00,75.2,69.3,29.95,SE,142,0.0,2.0,82,0.00,,FEW035,0.00,74.00,VWS V14.01,2013-02-09 00:31:00,
2013-02-08 19:36:00,75.2,69.3,29.95,SE,142,0.0,1.0,82,0.00,,FEW035,0.00,74.00,VWS V14.01,2013-02-09 00:36:00,
2013-02-08 19:41:00,75.1,69.2,29.96,SE,143,0.0,0.0,82,0.00,,FEW035,0.00,74.00,VWS V14.01,2013-02-09 00:41:00,
2013-02-08 19:46:00,74.9,69.0,29.96,SE,142,0.0,1.0,82,0.00,,FEW035,0.00,74.00,VWS V14.01,2013-02-09 00:46:00,
2013-02-08 19:51:00,74.7,69.2,29.96,SE,142,0.0,0.0,83,0.00,,FEW035,0.00,74.00,VWS V14.01,2013-02-09 00:51:00,
2013-02-08 19:56:00,74.4,68.9,29.97,SE,142,0.0,0.0,83,0.00,,FEW035,0.00,74.00,VWS V14.01,2013-02-09 00:56:00,
2013-02-08 20:01:00,74.0,68.9,29.97,SE,142,0.0,0.0,84,0.00,,FEW035,0.00,74.00,VWS V14.01,2013-02-09 01:01:00,
2013-02-08 20:06:00,73.9,69.1,29.97,SE,142,0.0,0.0,85,0.00,,FEW035,0.00,74.00,VWS V14.01,2013-02-09 01:06:00,
2013-02-08 20:11:00,73.7,68.6,29.97,SE,142,0.0,0.0,84,0.00,,FEW035,0.00,74.00,VWS V14.01,2013-02-09 01:11:00,
2013-02-08 20:16:00,73.5,69.1,29.97,SE,142,0.0,0.0,86,0.00,,FEW035,0.00,74.00,VWS V14.01,2013-02-09 01:16:00,
2013-02-08 20:21:00,73.2,69.1,29.97,SE,142,0.0,0.0,87,0.00,,FEW035,0.00,74.00,VWS V14.01,2013-02-09 01:21:00,
2013-02-08 20:26:00,73.0,69.2,29.98,SE,142,0.0,0.0,88,0.00,,FEW035,0.00,74.00,VWS V14.01,2013-02-09 01:26:00,
2013-02-08 20:31:00,72.9,69.1,29.98,SE,143,0.0,0.0,88,0.00,,FEW035,0.00,74.00,VWS V14.01,2013-02-09 01:31:00,
2013-02-08 20:36:00,72.7,68.9,29.98,SE,142,0.0,0.0,88,0.00,,FEW035,0.00,74.00,VWS V14.01,2013-02-09 01:36:00,
2013-02-08 20:41:00,72.6,68.8,29.98,SE,142,0.0,0.0,88,0.00,,FEW035,0.00,74.00,VWS V14.01,2013-02-09 01:41:00,
2013-02-08 20:46:00,72.5,68.8,29.98,SE,143,0.0,0.0,88,0.00,,FEW035,0.00,74.00,VWS V14.01,2013-02-09 01:46:00,
2013-02-08 20:51:00,72.4,68.7,29.98,SE,142,0.0,1.0,88,0.00,,FEW035,0.00,74.00,VWS V14.01,2013-02-09 01:51:00,
2013-02-08 20:56:00,72.5,68.8,29.98,SE,142,0.0,0.0,88,0.00,,FEW035,0.00,74.00,VWS V14.01,2013-02-09 01:56:00,
2013-02-08 21:01:00,72.5,68.8,29.98,SE,143,0.0,0.0,88,0.00,,FEW035,0.00,74.00,VWS V14.01,2013-02-09 02:01:00,
2013-02-08 21:06:00,72.4,68.7,29.98,SE,143,0.0,0.0,88,0.00,,FEW035,0.00,74.00,VWS V14.01,2013-02-09 02:06:00,
2013-02-08 21:11:00,72.1,68.7,29.98,SE,142,0.0,0.0,89,0.00,,FEW035,0.00,74.00,VWS V14.01,2013-02-09 02:11:00,
2013-02-08 21:16:00,71.8,68.4,29.98,SE,142,0.0,0.0,89,0.00,,FEW035,0.00,74.00,VWS V14.01,2013-02-09 02:16:00,
2013-02-08 21:21:00,71.6,68.5,29.98,SE,143,0.0,0.0,90,0.00,,FEW035,0.00,74.00,VWS V14.01,2013-02-09 02:21:00,
2013-02-08 21:26:00,71.4,68.3,29.98,SE,143,0.0,0.0,90,0.00,,FEW035,0.00,74.00,VWS V14.01,2013-02-09 02:26:00,
2013-02-08 21:31:00,71.5,68.4,29.98,SE,142,0.0,0.0,90,0.00,,FEW035,0.00,74.00,VWS V14.01,2013-02-09 02:31:00,
2013-02-08 21:36:00,71.4,68.6,29.98,SE,143,0.0,0.0,91,0.00,,FEW035,0.00,74.00,VWS V14.01,2013-02-09 02:36:00,
2013-02-08 21:41:00,71.3,68.5,29.99,SE,142,0.0,0.0,91,0.00,,FEW035,0.00,74.00,VWS V14.01,2013-02-09 02:41:00,
2013-02-08 21:46:00,70.9,68.2,29.99,SE,142,0.0,0.0,91,0.00,,FEW035,0.00,74.00,VWS V14.01,2013-02-09 02:46:00,
2013-02-08 21:51:00,70.3,67.6,29.99,SE,143,0.0,0.0,91,0.00,,FEW035,0.00,74.00,VWS V14.01,2013-02-09 02:51:00,
2013-02-08 21:56:00,70.1,67.4,29.99,SE,142,0.0,0.0,91,0.00,,FEW035,0.00,74.00,VWS V14.01,2013-02-09 02:56:00,
2013-02-08 22:01:00,69.7,67.0,29.99,SE,143,1.0,1.0,91,0.00,,FEW035,0.00,74.00,VWS V14.01,2013-02-09 03:01:00,
2013-02-08 22:06:00,69.4,67.0,29.99,SE,142,0.0,0.0,92,0.00,,FEW035,0.00,74.00,VWS V14.01,2013-02-09 03:06:00,
2013-02-08 22:11:00,69.3,66.9,29.99,SE,142,0.0,0.0,92,0.00,,FEW035,0.00,74.00,VWS V14.01,2013-02-09 03:11:00,
2013-02-08 22:16:00,69.0,66.6,29.99,SE,142,0.0,0.0,92,0.00,,FEW035,0.00,74.00,VWS V14.01,2013-02-09 03:16:00,
2013-02-08 22:21:00,68.8,66.7,29.99,SE,142,0.0,1.0,93,0.00,,FEW035,0.00,74.00,VWS V14.01,2013-02-09 03:21:00,
2013-02-08 22:26:00,68.8,66.7,29.99,SE,142,0.0,1.0,93,0.00,,FEW035,0.00,74.00,VWS V14.01,2013-02-09 03:26:00,
2013-02-08 22:31:00,68.6,66.5,29.99,WSW,244,2.0,4.0,93,0.00,,FEW035,0.00,74.00,VWS V14.01,2013-02-09 03:31:00,
2013-02-08 22:36:00,68.4,66.3,29.99,WSW,248,2.0,5.0,93,0.00,,FEW035,0.00,74.00,VWS V14.01,2013-02-09 03:36:00,
2013-02-08 22:41:00,68.2,66.1,29.99,WSW,254,0.0,1.0,93,0.00,,FEW035,0.00,74.00,VWS V14.01,2013-02-09 03:41:00,
2013-02-08 22:46:00,67.9,65.8,29.99,WSW,254,1.0,4.0,93,0.00,,FEW035,0.00,74.00,VWS V14.01,2013-02-09 03:46:00,
2013-02-08 22:51:00,67.8,65.7,30.00,WSW,254,2.0,3.0,93,0.00,,FEW035,0.00,74.00,VWS V14.01,2013-02-09 03:51:00,
2013-02-08 22:56:00,67.4,65.3,30.00,WSW,254,0.0,3.0,93,0.00,,FEW035,0.00,74.00,VWS V14.01,2013-02-09 03:56:00,
2013-02-08 23:01:00,66.9,64.8,30.00,WSW,254,0.0,3.0,93,0.00,,CLR,0.00,74.00,VWS V14.01,2013-02-09 04:01:00,
2013-02-08 23:06:00,66.2,64.1,30.00,WSW,253,3.0,4.0,93,0.00,,CLR,0.00,74.00,VWS V14.01,2013-02-09 04:06:00,
2013-02-08 23:11:00,65.7,63.6,30.00,WSW,253,2.0,2.0,93,0.00,,CLR,0.00,74.00,VWS V14.01,2013-02-09 04:11:00,
2013-02-08 23:16:00,65.7,63.3,30.00,WSW,253,0.0,4.0,92,0.00,,CLR,0.00,74.00,VWS V14.01,2013-02-09 04:16:00,
2013-02-08 23:21:00,65.8,63.1,30.00,WSW,254,1.0,3.0,91,0.00,,CLR,0.00,74.00,VWS V14.01,2013-02-09 04:21:00,
2013-02-08 23:26:00,66.0,62.7,30.00,West,281,3.0,5.0,89,0.00,,CLR,0.00,74.00,VWS V14.01,2013-02-09 04:26:00,
2013-02-08 23:31:00,66.1,62.1,30.00,West,279,1.0,4.0,87,0.00,,CLR,0.00,74.00,VWS V14.01,2013-02-09 04:31:00,
2013-02-08 23:36:00,66.2,61.6,30.00,West,279,2.0,4.0,85,0.00,,CLR,0.00,74.00,VWS V14.01,2013-02-09 04:36:00,
2013-02-08 23:41:00,66.2,60.9,30.00,West,279,3.0,5.0,83,0.00,,CLR,0.00,74.00,VWS V14.01,2013-02-09 04:41:00,
2013-02-08 23:46:00,66.2,60.5,30.00,West,280,3.0,5.0,82,0.00,,CLR,0.00,74.00,VWS V14.01,2013-02-09 04:46:00,
2013-02-08 23:51:00,66.1,60.1,30.00,West,280,1.0,4.0,81,0.00,,CLR,0.00,74.00,VWS V14.01,2013-02-09 04:51:00,
2013-02-08 23:56:00,66.0,60.0,30.00,West,280,1.0,3.0,81,0.00,,CLR,0.00,74.00,VWS V14.01,2013-02-09 04:56:00,